createdAt,value
2022-08-12T00:03:00.422Z,3.20
2022-08-12T00:06:26.215Z,2.88
2022-08-12T00:09:51.112Z,3.05
2022-08-12T00:13:15.074Z,2.97
2022-08-12T00:16:39.564Z,3.17
2022-08-12T00:20:04.764Z,3.25
2022-08-12T00:23:30.069Z,3.15
2022-08-12T00:26:54.220Z,3.65
2022-08-12T00:30:19.177Z,2.80
2022-08-12T00:33:52.659Z,2.70
2022-08-12T00:37:17.796Z,2.42
2022-08-12T00:40:44.492Z,2.90
2022-08-12T00:43:50.974Z,2.90
2022-08-12T00:47:02.615Z,3.63
2022-08-12T00:50:18.177Z,3.60
2022-08-12T00:53:23.940Z,3.17
2022-08-12T00:56:32.393Z,3.20
2022-08-12T00:59:45.182Z,4.00
2022-08-12T01:02:58.966Z,4.43
2022-08-12T01:06:23.369Z,3.90
2022-08-12T01:09:47.596Z,3.90
2022-08-12T01:12:54.469Z,4.63
2022-08-12T01:16:16.933Z,4.20
2022-08-12T01:19:24.478Z,4.30
2022-08-12T01:22:54.683Z,4.10
2022-08-12T01:26:04.270Z,4.47
2022-08-12T01:29:16.091Z,4.32
2022-08-12T01:32:24.210Z,3.80
2022-08-12T01:35:33.344Z,4.35
2022-08-12T01:38:41.548Z,4.10
2022-08-12T01:42:03.125Z,4.05
2022-08-12T01:45:10.541Z,4.13
2022-08-12T01:48:29.766Z,4.85
2022-08-12T01:52:20.097Z,4.68
2022-08-12T01:55:14.081Z,4.68
2022-08-12T01:59:01.525Z,4.22
2022-08-12T02:02:11.857Z,4.90
2022-08-12T02:06:00.310Z,5.05
2022-08-12T02:09:27.827Z,5.32
2022-08-12T02:12:56.635Z,5.00
2022-08-12T02:16:14.461Z,5.03
2022-08-12T02:19:41.230Z,4.85
2022-08-12T02:22:47.926Z,4.55
2022-08-12T02:25:55.877Z,4.45
2022-08-12T02:29:02.642Z,4.40
2022-08-12T02:32:09.030Z,5.25
2022-08-12T02:35:19.861Z,4.90
2022-08-12T02:38:28.413Z,5.00
2022-08-12T02:41:37.265Z,5.40
2022-08-12T02:44:46.192Z,5.28
2022-08-12T02:47:59.870Z,5.32
2022-08-12T02:51:10.616Z,4.85
2022-08-12T02:54:16.315Z,5.22
2022-08-12T02:57:22.748Z,4.35
2022-08-12T03:00:29.814Z,4.63
2022-08-12T03:03:36.015Z,4.80
2022-08-12T03:06:49.462Z,4.72
2022-08-12T03:10:04.120Z,4.93
2022-08-12T03:13:14.843Z,4.65
2022-08-12T03:16:24.393Z,4.53
2022-08-12T03:19:31.449Z,5.18
2022-08-12T03:22:42.906Z,5.18
2022-08-12T03:25:52.414Z,5.78
2022-08-12T03:28:58.519Z,5.32
2022-08-12T03:32:05.194Z,5.47
2022-08-12T03:35:36.918Z,6.35
2022-08-12T03:38:43.631Z,6.15
2022-08-12T03:42:22.752Z,6.85
2022-08-12T03:45:51.910Z,5.82
2022-08-12T03:49:16.495Z,6.18
2022-08-12T03:52:40.616Z,5.75
2022-08-12T03:56:05.022Z,5.82
2022-08-12T03:59:29.005Z,5.60
2022-08-12T04:02:35.560Z,4.82
2022-08-12T04:05:55.526Z,4.60
2022-08-12T04:09:16.080Z,4.88
2022-08-12T04:12:44.893Z,3.88
2022-08-12T04:15:50.362Z,4.10
2022-08-12T04:18:56.346Z,4.10
2022-08-12T04:22:03.538Z,5.00
2022-08-12T04:25:11.027Z,5.18
2022-08-12T04:28:16.179Z,3.63
2022-08-12T04:31:37.571Z,3.30
2022-08-12T04:34:44.957Z,2.72
2022-08-12T04:37:58.627Z,3.53
2022-08-12T04:41:07.028Z,4.05
2022-08-12T04:44:12.524Z,2.55
2022-08-12T04:47:19.923Z,3.50
2022-08-12T04:50:35.264Z,3.25
2022-08-12T04:53:43.748Z,3.00
2022-08-12T04:57:04.635Z,3.42
2022-08-12T05:00:14.145Z,3.35
2022-08-12T05:03:20.103Z,2.80
2022-08-12T05:06:27.227Z,6.13
2022-08-12T05:09:59.780Z,3.05
2022-08-12T05:13:02.887Z,4.00
2022-08-12T05:16:09.606Z,3.45
2022-08-12T05:19:22.343Z,3.40
2022-08-12T05:22:28.763Z,2.92
2022-08-12T05:25:34.922Z,2.72
2022-08-12T05:28:41.461Z,3.22
2022-08-12T05:31:48.236Z,3.03
2022-08-12T05:34:54.278Z,2.13
2022-08-12T05:38:20.167Z,1.90
2022-08-12T05:41:36.815Z,2.13
2022-08-12T05:44:42.676Z,2.00
2022-08-12T05:47:53.663Z,2.00
2022-08-12T05:51:00.065Z,1.80
2022-08-12T05:54:06.166Z,2.33
2022-08-12T05:57:13.561Z,2.55
2022-08-12T06:00:20.998Z,2.83
2022-08-12T06:03:26.066Z,2.00
2022-08-12T06:06:39.530Z,2.78
2022-08-12T06:09:45.104Z,2.30
2022-08-12T06:12:50.870Z,2.00
2022-08-12T06:15:57.203Z,1.90
2022-08-12T06:19:02.923Z,2.28
2022-08-12T06:22:08.052Z,1.88
2022-08-12T06:25:21.771Z,2.00
2022-08-12T06:28:30.916Z,1.95
2022-08-12T06:31:36.617Z,2.28
2022-08-12T06:35:22.961Z,2.97
2022-08-12T06:38:16.395Z,2.50
2022-08-12T06:41:40.434Z,2.40
2022-08-12T06:45:07.400Z,2.33
2022-08-12T06:48:13.206Z,2.15
2022-08-12T06:51:21.123Z,1.73
2022-08-12T06:54:31.075Z,2.17
2022-08-12T06:58:07.024Z,2.20
2022-08-12T07:01:17.715Z,2.28
2022-08-12T07:04:36.370Z,2.10
2022-08-12T07:07:48.369Z,1.93
2022-08-12T07:10:59.414Z,1.90
2022-08-12T07:14:13.114Z,2.00
2022-08-12T07:17:19.018Z,2.45
2022-08-12T07:20:50.778Z,1.88
2022-08-12T07:23:50.727Z,1.88
2022-08-12T07:26:56.152Z,2.00
2022-08-12T07:30:04.642Z,2.00
2022-08-12T07:33:12.170Z,2.13
2022-08-12T07:36:17.871Z,2.95
2022-08-12T07:39:23.253Z,2.25
2022-08-12T07:42:29.867Z,2.35
2022-08-12T07:45:35.501Z,1.83
2022-08-12T07:48:49.469Z,2.03
2022-08-12T07:51:54.972Z,2.00
2022-08-12T07:55:00.684Z,2.45
2022-08-12T07:58:06.751Z,2.13
2022-08-12T08:01:15.942Z,1.98
2022-08-12T08:04:40.248Z,1.73
2022-08-12T08:07:45.568Z,1.50
2022-08-12T08:10:53.306Z,2.22
2022-08-12T08:14:01.907Z,1.52
2022-08-12T08:17:08.608Z,1.80
2022-08-12T08:20:13.993Z,1.60
2022-08-12T08:23:19.533Z,1.90
2022-08-12T08:26:26.221Z,1.88
2022-08-12T08:29:35.575Z,1.60
2022-08-12T08:32:41.681Z,1.33
2022-08-12T08:35:48.649Z,2.20
2022-08-12T08:38:58.092Z,2.13
2022-08-12T08:42:22.961Z,1.63
2022-08-12T08:45:29.116Z,1.70
2022-08-12T08:48:35.131Z,1.75
2022-08-12T08:51:41.186Z,1.70
2022-08-12T08:54:49.032Z,1.70
2022-08-12T08:57:55.200Z,1.25
2022-08-12T09:01:01.146Z,1.52
2022-08-12T09:05:07.391Z,1.58
2022-08-12T09:07:51.928Z,1.60
2022-08-12T09:12:07.434Z,1.40
2022-08-12T09:14:54.797Z,1.33
2022-08-12T09:18:03.063Z,1.60
2022-08-12T09:21:11.132Z,1.52
2022-08-12T09:24:20.126Z,1.60
2022-08-12T09:30:57.293Z,1.80
2022-08-12T09:34:28.445Z,1.98
2022-08-12T09:37:58.318Z,2.58
2022-08-12T09:42:33.777Z,1.88
2022-08-12T09:44:41.664Z,1.83
2022-08-12T09:47:56.948Z,1.88
2022-08-12T09:51:16.679Z,1.98
2022-08-12T09:54:33.150Z,1.95
2022-08-12T09:58:47.063Z,1.90
2022-08-12T10:01:14.995Z,2.13
2022-08-12T10:04:30.377Z,1.70
2022-08-12T10:07:40.555Z,1.55
2022-08-12T10:11:06.584Z,2.10
2022-08-12T10:14:13.153Z,1.83
2022-08-12T10:17:23.108Z,1.70
2022-08-12T10:20:28.883Z,1.77
2022-08-12T10:27:14.433Z,1.60
2022-08-12T10:30:39.355Z,2.47
2022-08-12T10:33:54.891Z,1.92
2022-08-12T10:38:35.751Z,1.73
2022-08-12T10:40:56.156Z,1.45
2022-08-12T10:44:05.657Z,1.77
2022-08-12T10:47:26.268Z,1.60
2022-08-12T10:50:56.694Z,1.33
2022-08-12T10:54:04.009Z,1.52
2022-08-12T10:57:18.548Z,1.60
2022-08-12T11:00:45.266Z,1.30
2022-08-12T11:04:23.174Z,1.83
2022-08-12T11:08:36.480Z,1.30
2022-08-12T11:11:03.077Z,1.65
2022-08-12T11:14:50.317Z,1.45
2022-08-12T11:17:52.163Z,1.58
2022-08-12T11:21:01.406Z,2.03
2022-08-12T11:24:30.941Z,1.50
2022-08-12T11:27:37.762Z,1.02
2022-08-12T11:30:44.125Z,1.45
2022-08-12T11:34:05.525Z,1.10
2022-08-12T11:37:25.824Z,1.35
2022-08-12T11:40:32.545Z,1.40
2022-08-12T11:43:50.794Z,1.38
2022-08-12T11:47:03.947Z,1.95
2022-08-12T11:50:19.034Z,2.40
2022-08-12T11:53:59.519Z,1.20
2022-08-12T11:56:59.479Z,1.10
2022-08-12T12:03:44.247Z,1.25
2022-08-12T12:06:53.158Z,1.20
2022-08-12T12:09:59.140Z,2.08
2022-08-12T12:13:23.027Z,1.02
2022-08-12T12:16:33.528Z,1.35
2022-08-12T12:19:47.778Z,1.10
2022-08-12T12:22:54.999Z,1.25
2022-08-12T12:26:07.880Z,1.25
2022-08-12T12:30:19.922Z,1.40
2022-08-12T12:32:39.178Z,1.13
2022-08-12T12:36:18.460Z,0.82
2022-08-12T12:39:10.553Z,1.58
2022-08-12T12:42:42.866Z,1.20
2022-08-12T12:45:46.575Z,1.10
2022-08-12T12:48:51.832Z,1.27
2022-08-12T12:52:19.057Z,1.02
2022-08-12T12:55:24.739Z,1.20
2022-08-12T12:58:43.617Z,1.23
2022-08-12T13:04:55.690Z,1.20
2022-08-12T13:08:04.297Z,1.38
2022-08-12T13:11:09.556Z,1.00
2022-08-12T13:14:28.970Z,1.20
2022-08-12T13:18:02.211Z,1.33
2022-08-12T13:21:15.780Z,1.35
2022-08-12T13:24:35.115Z,1.27
2022-08-12T13:27:48.543Z,1.30
2022-08-12T13:30:58.037Z,1.35
2022-08-12T13:34:33.905Z,1.30
2022-08-12T13:37:44.133Z,1.50
2022-08-12T13:40:58.915Z,1.20
2022-08-12T13:44:10.721Z,1.33
2022-08-12T13:47:19.771Z,1.42
2022-08-12T13:50:36.626Z,1.08
2022-08-12T13:53:58.298Z,0.90
2022-08-12T13:57:11.076Z,1.20
2022-08-12T14:00:24.860Z,1.20
2022-08-12T14:03:50.965Z,1.33
2022-08-12T14:06:58.715Z,1.25
2022-08-12T14:10:25.076Z,0.98
2022-08-12T14:14:05.342Z,1.33
2022-08-12T14:17:10.475Z,1.23
2022-08-12T14:20:16.536Z,1.40
2022-08-12T14:24:04.675Z,1.15
2022-08-12T14:26:49.297Z,1.45
2022-08-12T14:30:04.483Z,1.45
2022-08-12T14:33:22.389Z,1.15
2022-08-12T14:36:28.846Z,1.25
2022-08-12T14:39:34.774Z,1.10
2022-08-12T14:42:44.952Z,1.55
2022-08-12T14:45:52.350Z,1.15
2022-08-12T14:48:58.801Z,1.40
2022-08-12T14:52:55.783Z,1.20
2022-08-12T14:59:57.131Z,1.00
2022-08-12T15:02:59.646Z,1.45
2022-08-12T15:06:43.596Z,1.10
2022-08-12T15:09:33.389Z,1.30
2022-08-12T15:12:40.482Z,1.40
2022-08-12T15:15:46.605Z,1.55
2022-08-12T15:18:56.218Z,1.27
2022-08-12T15:22:35.352Z,1.20
2022-08-12T15:25:40.185Z,1.98
2022-08-12T15:28:55.423Z,1.13
2022-08-12T15:32:10.835Z,1.15
2022-08-12T15:35:31.237Z,1.27
2022-08-12T15:38:44.686Z,1.95
2022-08-12T15:41:55.421Z,1.73
2022-08-12T15:45:02.293Z,1.50
2022-08-12T15:48:16.597Z,1.55
2022-08-12T15:51:59.714Z,1.52
2022-08-12T15:55:05.030Z,1.70
2022-08-12T15:58:12.652Z,1.30
2022-08-12T16:01:18.188Z,1.60
2022-08-12T16:04:25.942Z,1.27
2022-08-12T16:07:36.830Z,1.30
2022-08-12T16:10:45.180Z,1.73
2022-08-12T16:13:52.294Z,1.80
2022-08-12T16:17:00.332Z,1.70
2022-08-12T16:20:21.319Z,1.40
2022-08-12T16:23:51.279Z,1.40
2022-08-12T16:26:54.370Z,1.40
2022-08-12T16:30:01.007Z,1.70
2022-08-12T16:33:11.824Z,1.90
2022-08-12T16:36:18.833Z,2.42
2022-08-12T16:39:25.710Z,2.33
2022-08-12T16:42:34.012Z,2.38
2022-08-12T16:46:05.382Z,2.53
2022-08-12T16:49:12.984Z,3.30
2022-08-12T16:52:19.727Z,3.80
2022-08-12T16:55:27.850Z,3.75
2022-08-12T16:58:44.567Z,3.90
2022-08-12T17:01:49.999Z,4.03
2022-08-12T17:05:00.218Z,3.78
2022-08-12T17:08:11.199Z,3.42
2022-08-12T17:11:21.376Z,3.83
2022-08-12T17:14:30.681Z,4.10
2022-08-12T17:17:39.824Z,3.45
2022-08-12T17:20:47.723Z,4.57
2022-08-12T17:23:58.247Z,3.53
2022-08-12T17:27:16.023Z,4.28
2022-08-12T17:30:25.353Z,2.78
2022-08-12T17:33:35.255Z,4.05
2022-08-12T17:36:44.962Z,3.70
2022-08-12T17:40:13.723Z,3.28
2022-08-12T17:43:57.196Z,3.60
2022-08-12T17:46:46.167Z,3.47
2022-08-12T17:50:03.402Z,3.20
2022-08-12T17:53:13.381Z,3.47
2022-08-12T17:56:21.796Z,4.28
2022-08-12T17:59:48.269Z,5.35
2022-08-12T18:03:00.078Z,4.45
2022-08-12T18:06:14.023Z,3.80
2022-08-12T18:09:32.082Z,3.80
2022-08-12T18:12:47.913Z,3.42
2022-08-12T18:16:06.641Z,3.35
2022-08-12T18:19:12.564Z,3.30
2022-08-12T18:22:22.047Z,3.95
2022-08-12T18:26:15.389Z,4.07
2022-08-12T18:29:22.749Z,4.25
2022-08-12T18:32:53.643Z,5.20
2022-08-12T18:36:03.240Z,6.40
2022-08-12T18:39:10.586Z,5.45
2022-08-12T18:42:18.508Z,5.60
2022-08-12T18:45:31.548Z,6.05
2022-08-12T18:48:53.737Z,5.25
2022-08-12T18:52:04.529Z,4.70
2022-08-12T18:55:12.546Z,4.38
2022-08-12T18:58:20.522Z,3.58
2022-08-12T19:02:19.499Z,5.30
2022-08-12T19:04:54.029Z,2.78
2022-08-12T19:08:02.337Z,2.38
2022-08-12T19:11:26.793Z,2.55
2022-08-12T19:14:35.867Z,2.58
2022-08-12T19:17:56.876Z,2.58
2022-08-12T19:21:16.020Z,2.30
2022-08-12T19:24:42.284Z,2.20
2022-08-12T19:27:52.139Z,2.83
2022-08-12T19:31:17.561Z,2.58
2022-08-12T19:35:07.082Z,2.22
2022-08-12T19:38:06.413Z,2.58
2022-08-12T19:41:22.807Z,2.80
2022-08-12T19:44:30.222Z,3.67
2022-08-12T19:47:39.131Z,3.42
2022-08-12T19:50:49.853Z,3.92
2022-08-12T19:54:00.055Z,2.97
2022-08-12T19:57:05.773Z,3.33
2022-08-12T20:00:18.026Z,3.58
2022-08-12T20:03:38.630Z,2.97
2022-08-12T20:06:51.543Z,3.10
2022-08-12T20:09:59.976Z,3.45
2022-08-12T20:13:17.914Z,3.03
2022-08-12T20:16:50.939Z,2.88
2022-08-12T20:20:17.017Z,3.45
2022-08-12T20:23:50.268Z,2.90
2022-08-12T20:26:52.659Z,3.63
2022-08-12T20:29:59.920Z,3.28
2022-08-12T20:33:05.595Z,3.15
2022-08-12T20:36:40.790Z,2.78
2022-08-12T20:39:56.662Z,2.55
2022-08-12T20:43:06.672Z,2.70
2022-08-12T20:46:13.836Z,2.90
2022-08-12T20:49:21.109Z,2.85
2022-08-12T20:52:30.033Z,2.75
2022-08-12T20:55:41.459Z,3.65
2022-08-12T20:58:51.635Z,2.83
2022-08-12T21:01:57.797Z,3.53
2022-08-12T21:06:09.578Z,3.10
2022-08-12T21:08:54.559Z,3.00
2022-08-12T21:12:02.033Z,3.20
2022-08-12T21:15:23.677Z,3.13
2022-08-12T21:18:36.017Z,3.63
2022-08-12T21:21:50.249Z,4.10
2022-08-12T21:24:56.495Z,4.22
2022-08-12T21:28:03.633Z,3.83
2022-08-12T21:32:34.764Z,4.03
2022-08-12T21:34:35.676Z,4.90
2022-08-12T21:37:42.176Z,5.22
2022-08-12T21:40:52.725Z,5.47
2022-08-12T21:44:01.886Z,5.15
2022-08-12T21:47:21.179Z,5.43
2022-08-12T21:50:31.612Z,5.60
2022-08-12T21:54:06.249Z,5.03
2022-08-12T21:57:05.499Z,4.72
2022-08-12T22:00:17.333Z,4.47
2022-08-12T22:04:04.261Z,4.72
2022-08-12T22:07:08.123Z,5.55
2022-08-12T22:10:18.383Z,5.28
2022-08-12T22:14:03.163Z,4.65
2022-08-12T22:17:05.123Z,5.43
2022-08-12T22:20:21.969Z,5.03
2022-08-12T22:23:52.251Z,5.45
2022-08-12T22:26:53.286Z,5.55
2022-08-12T22:30:19.824Z,5.80
2022-08-12T22:33:25.934Z,5.85
2022-08-12T22:36:33.162Z,5.28
2022-08-12T22:39:44.174Z,5.18
2022-08-12T22:43:09.281Z,4.97
2022-08-12T22:46:40.312Z,5.03
2022-08-12T22:49:59.873Z,5.10
2022-08-12T22:53:16.282Z,5.32
2022-08-12T22:56:31.034Z,5.72
2022-08-12T22:59:51.045Z,6.20
2022-08-12T23:03:03.664Z,5.50
2022-08-12T23:06:11.293Z,6.13
2022-08-12T23:09:24.453Z,7.75
2022-08-12T23:12:49.025Z,6.70
2022-08-12T23:15:59.817Z,6.55
2022-08-12T23:19:17.953Z,6.95
2022-08-12T23:22:36.059Z,8.20
2022-08-12T23:25:54.387Z,7.93
2022-08-12T23:29:29.695Z,7.45
2022-08-12T23:32:42.341Z,7.35
2022-08-12T23:35:59.493Z,7.63
2022-08-12T23:40:15.706Z,7.00
2022-08-12T23:42:38.242Z,7.28
2022-08-12T23:46:00.333Z,7.60
2022-08-12T23:49:27.192Z,8.48
2022-08-12T23:52:35.009Z,9.25
2022-08-12T23:55:41.217Z,7.45
2022-08-12T23:58:53.210Z,8.82
